sensor_id;sensor_type;location;lat;lon;timestamp;P1;durP1;ratioP1;P2;durP2;ratioP2
11151;SDS011;5630;49.342;10.802;2023-04-03T00:00:52;5.13;;;2.37;;
11151;SDS011;5630;49.342;10.802;2023-04-03T00:03:17;4.53;;;2.30;;
11151;SDS011;5630;49.342;10.802;2023-04-03T00:05:43;3.63;;;2.15;;
11151;SDS011;5630;49.342;10.802;2023-04-03T00:08:10;2.80;;;2.40;;
11151;SDS011;5630;49.342;10.802;2023-04-03T00:10:36;2.73;;;2.40;;
11151;SDS011;5630;49.342;10.802;2023-04-03T00:13:03;3.53;;;2.53;;
11151;SDS011;5630;49.342;10.802;2023-04-03T00:15:29;4.22;;;2.42;;
11151;SDS011;5630;49.342;10.802;2023-04-03T00:17:55;2.30;;;2.10;;
11151;SDS011;5630;49.342;10.802;2023-04-03T00:20:20;2.63;;;2.40;;
11151;SDS011;5630;49.342;10.802;2023-04-03T00:22:46;2.30;;;2.00;;
11151;SDS011;5630;49.342;10.802;2023-04-03T00:25:12;4.20;;;2.27;;
11151;SDS011;5630;49.342;10.802;2023-04-03T00:27:37;3.87;;;2.27;;
11151;SDS011;5630;49.342;10.802;2023-04-03T00:30:04;4.13;;;2.42;;
11151;SDS011;5630;49.342;10.802;2023-04-03T00:32:31;3.83;;;2.35;;
11151;SDS011;5630;49.342;10.802;2023-04-03T00:34:57;2.37;;;2.03;;
11151;SDS011;5630;49.342;10.802;2023-04-03T00:37:23;2.60;;;2.10;;
11151;SDS011;5630;49.342;10.802;2023-04-03T00:39:48;4.37;;;2.57;;
11151;SDS011;5630;49.342;10.802;2023-04-03T00:42:14;2.93;;;2.33;;
11151;SDS011;5630;49.342;10.802;2023-04-03T00:47:05;2.43;;;1.87;;
11151;SDS011;5630;49.342;10.802;2023-04-03T00:49:33;4.10;;;2.20;;
11151;SDS011;5630;49.342;10.802;2023-04-03T00:52:00;2.42;;;2.22;;
11151;SDS011;5630;49.342;10.802;2023-04-03T00:54:27;2.40;;;2.20;;
11151;SDS011;5630;49.342;10.802;2023-04-03T00:56:53;2.33;;;2.13;;
11151;SDS011;5630;49.342;10.802;2023-04-03T00:59:23;3.13;;;2.15;;
11151;SDS011;5630;49.342;10.802;2023-04-03T01:01:55;3.92;;;2.30;;
11151;SDS011;5630;49.342;10.802;2023-04-03T01:04:34;3.20;;;2.13;;
11151;SDS011;5630;49.342;10.802;2023-04-03T01:07:35;2.33;;;1.90;;
11151;SDS011;5630;49.342;10.802;2023-04-03T01:09:56;2.80;;;2.30;;
11151;SDS011;5630;49.342;10.802;2023-04-03T01:12:25;2.65;;;2.13;;
11151;SDS011;5630;49.342;10.802;2023-04-03T01:15:04;2.50;;;2.10;;
11151;SDS011;5630;49.342;10.802;2023-04-03T01:25:28;3.03;;;2.40;;
11151;SDS011;5630;49.342;10.802;2023-04-03T01:27:54;2.30;;;2.10;;
11151;SDS011;5630;49.342;10.802;2023-04-03T01:30:20;4.33;;;2.10;;
11151;SDS011;5630;49.342;10.802;2023-04-03T01:32:48;3.13;;;2.20;;
11151;SDS011;5630;49.342;10.802;2023-04-03T01:35:14;2.80;;;2.40;;
11151;SDS011;5630;49.342;10.802;2023-04-03T01:37:39;2.83;;;2.00;;
11151;SDS011;5630;49.342;10.802;2023-04-03T01:40:05;2.80;;;2.20;;
11151;SDS011;5630;49.342;10.802;2023-04-03T01:42:32;3.80;;;2.30;;
11151;SDS011;5630;49.342;10.802;2023-04-03T01:44:57;2.87;;;2.30;;
11151;SDS011;5630;49.342;10.802;2023-04-03T01:47:23;4.13;;;2.20;;
11151;SDS011;5630;49.342;10.802;2023-04-03T01:49:48;2.73;;;2.20;;
11151;SDS011;5630;49.342;10.802;2023-04-03T01:52:14;2.83;;;2.20;;
11151;SDS011;5630;49.342;10.802;2023-04-03T01:54:39;3.93;;;2.50;;
11151;SDS011;5630;49.342;10.802;2023-04-03T01:57:05;4.00;;;2.80;;
11151;SDS011;5630;49.342;10.802;2023-04-03T01:59:30;5.10;;;2.47;;
11151;SDS011;5630;49.342;10.802;2023-04-03T02:01:56;3.77;;;2.60;;
11151;SDS011;5630;49.342;10.802;2023-04-03T02:04:22;3.50;;;2.60;;
11151;SDS011;5630;49.342;10.802;2023-04-03T02:06:47;2.37;;;2.17;;
11151;SDS011;5630;49.342;10.802;2023-04-03T02:09:13;2.47;;;2.27;;
11151;SDS011;5630;49.342;10.802;2023-04-03T02:11:38;3.13;;;2.50;;
11151;SDS011;5630;49.342;10.802;2023-04-03T02:14:04;2.93;;;2.40;;
11151;SDS011;5630;49.342;10.802;2023-04-03T02:16:30;2.80;;;2.40;;
11151;SDS011;5630;49.342;10.802;2023-04-03T02:18:56;2.90;;;2.40;;
11151;SDS011;5630;49.342;10.802;2023-04-03T02:21:21;3.50;;;2.63;;
11151;SDS011;5630;49.342;10.802;2023-04-03T02:23:47;3.17;;;2.30;;
11151;SDS011;5630;49.342;10.802;2023-04-03T02:26:14;2.77;;;2.50;;
11151;SDS011;5630;49.342;10.802;2023-04-03T02:28:41;3.60;;;2.50;;
11151;SDS011;5630;49.342;10.802;2023-04-03T02:31:07;2.60;;;2.30;;
11151;SDS011;5630;49.342;10.802;2023-04-03T02:33:33;2.60;;;2.40;;
11151;SDS011;5630;49.342;10.802;2023-04-03T02:36:02;3.20;;;2.60;;
11151;SDS011;5630;49.342;10.802;2023-04-03T02:38:31;4.20;;;2.60;;
11151;SDS011;5630;49.342;10.802;2023-04-03T02:41:03;3.30;;;2.50;;
11151;SDS011;5630;49.342;10.802;2023-04-03T02:43:31;3.40;;;2.42;;
11151;SDS011;5630;49.342;10.802;2023-04-03T02:45:57;3.08;;;2.50;;
11151;SDS011;5630;49.342;10.802;2023-04-03T02:48:23;4.63;;;2.50;;
11151;SDS011;5630;49.342;10.802;2023-04-03T02:50:49;3.15;;;2.55;;
11151;SDS011;5630;49.342;10.802;2023-04-03T02:53:15;4.13;;;2.50;;
11151;SDS011;5630;49.342;10.802;2023-04-03T02:55:41;3.20;;;2.50;;
11151;SDS011;5630;49.342;10.802;2023-04-03T02:58:06;4.37;;;2.40;;
11151;SDS011;5630;49.342;10.802;2023-04-03T03:00:32;6.00;;;2.63;;
11151;SDS011;5630;49.342;10.802;2023-04-03T03:02:58;2.65;;;2.20;;
11151;SDS011;5630;49.342;10.802;2023-04-03T03:05:25;3.53;;;2.20;;
11151;SDS011;5630;49.342;10.802;2023-04-03T03:07:51;3.53;;;2.40;;
11151;SDS011;5630;49.342;10.802;2023-04-03T03:10:16;2.57;;;2.20;;
11151;SDS011;5630;49.342;10.802;2023-04-03T03:12:42;5.47;;;2.47;;
11151;SDS011;5630;49.342;10.802;2023-04-03T03:15:08;4.77;;;2.47;;
11151;SDS011;5630;49.342;10.802;2023-04-03T03:17:33;5.53;;;2.27;;
11151;SDS011;5630;49.342;10.802;2023-04-03T03:20:00;3.88;;;2.40;;
11151;SDS011;5630;49.342;10.802;2023-04-03T03:22:27;3.53;;;2.58;;
11151;SDS011;5630;49.342;10.802;2023-04-03T03:24:53;3.20;;;2.30;;
11151;SDS011;5630;49.342;10.802;2023-04-03T03:27:19;3.80;;;2.20;;
11151;SDS011;5630;49.342;10.802;2023-04-03T03:29:45;4.00;;;2.33;;
11151;SDS011;5630;49.342;10.802;2023-04-03T03:32:11;5.73;;;2.40;;
11151;SDS011;5630;49.342;10.802;2023-04-03T03:34:36;6.83;;;2.80;;
11151;SDS011;5630;49.342;10.802;2023-04-03T03:37:02;3.73;;;2.50;;
11151;SDS011;5630;49.342;10.802;2023-04-03T03:39:28;3.70;;;2.63;;
11151;SDS011;5630;49.342;10.802;2023-04-03T03:41:53;8.70;;;2.80;;
11151;SDS011;5630;49.342;10.802;2023-04-03T03:44:19;3.37;;;2.43;;
11151;SDS011;5630;49.342;10.802;2023-04-03T03:46:45;6.03;;;2.65;;
11151;SDS011;5630;49.342;10.802;2023-04-03T03:49:11;4.03;;;2.40;;
11151;SDS011;5630;49.342;10.802;2023-04-03T03:51:37;5.30;;;2.87;;
11151;SDS011;5630;49.342;10.802;2023-04-03T03:54:04;3.60;;;2.83;;
11151;SDS011;5630;49.342;10.802;2023-04-03T03:56:30;3.95;;;2.83;;
11151;SDS011;5630;49.342;10.802;2023-04-03T03:58:56;4.35;;;2.65;;
11151;SDS011;5630;49.342;10.802;2023-04-03T04:01:22;5.23;;;3.17;;
11151;SDS011;5630;49.342;10.802;2023-04-03T04:03:48;6.32;;;2.63;;
11151;SDS011;5630;49.342;10.802;2023-04-03T04:06:14;4.27;;;2.50;;
11151;SDS011;5630;49.342;10.802;2023-04-03T04:08:40;4.77;;;3.50;;
11151;SDS011;5630;49.342;10.802;2023-04-03T04:11:05;5.73;;;2.80;;
11151;SDS011;5630;49.342;10.802;2023-04-03T04:13:31;4.07;;;2.73;;
11151;SDS011;5630;49.342;10.802;2023-04-03T04:15:56;4.10;;;2.83;;
11151;SDS011;5630;49.342;10.802;2023-04-03T04:18:22;5.20;;;2.57;;
11151;SDS011;5630;49.342;10.802;2023-04-03T04:20:48;6.65;;;3.05;;
11151;SDS011;5630;49.342;10.802;2023-04-03T04:23:15;6.25;;;2.85;;
11151;SDS011;5630;49.342;10.802;2023-04-03T04:25:44;6.18;;;2.75;;
11151;SDS011;5630;49.342;10.802;2023-04-03T04:28:10;4.22;;;2.50;;
11151;SDS011;5630;49.342;10.802;2023-04-03T04:30:36;3.97;;;2.73;;
11151;SDS011;5630;49.342;10.802;2023-04-03T04:33:02;5.17;;;3.00;;
11151;SDS011;5630;49.342;10.802;2023-04-03T04:35:28;6.00;;;3.10;;
11151;SDS011;5630;49.342;10.802;2023-04-03T04:37:53;5.37;;;3.10;;
11151;SDS011;5630;49.342;10.802;2023-04-03T04:40:19;7.37;;;3.17;;
11151;SDS011;5630;49.342;10.802;2023-04-03T04:42:46;6.43;;;3.22;;
11151;SDS011;5630;49.342;10.802;2023-04-03T04:45:11;7.40;;;3.40;;
11151;SDS011;5630;49.342;10.802;2023-04-03T04:47:37;5.20;;;3.30;;
11151;SDS011;5630;49.342;10.802;2023-04-03T04:50:03;6.43;;;3.60;;
11151;SDS011;5630;49.342;10.802;2023-04-03T04:52:28;4.70;;;3.20;;
11151;SDS011;5630;49.342;10.802;2023-04-03T04:54:54;5.97;;;3.10;;
11151;SDS011;5630;49.342;10.802;2023-04-03T04:57:20;6.00;;;3.60;;
11151;SDS011;5630;49.342;10.802;2023-04-03T04:59:45;5.33;;;3.13;;
11151;SDS011;5630;49.342;10.802;2023-04-03T05:02:11;5.43;;;3.27;;
11151;SDS011;5630;49.342;10.802;2023-04-03T05:04:37;5.73;;;3.13;;
11151;SDS011;5630;49.342;10.802;2023-04-03T05:07:02;8.90;;;3.77;;
11151;SDS011;5630;49.342;10.802;2023-04-03T05:09:28;6.23;;;3.50;;
11151;SDS011;5630;49.342;10.802;2023-04-03T05:11:53;4.47;;;3.40;;
11151;SDS011;5630;49.342;10.802;2023-04-03T05:14:19;7.43;;;3.33;;
11151;SDS011;5630;49.342;10.802;2023-04-03T05:16:45;9.33;;;3.73;;
11151;SDS011;5630;49.342;10.802;2023-04-03T05:19:10;4.80;;;3.10;;
11151;SDS011;5630;49.342;10.802;2023-04-03T05:21:36;8.30;;;3.27;;
11151;SDS011;5630;49.342;10.802;2023-04-03T05:24:02;6.47;;;3.20;;
11151;SDS011;5630;49.342;10.802;2023-04-03T05:26:28;8.13;;;3.40;;
11151;SDS011;5630;49.342;10.802;2023-04-03T05:28:55;5.90;;;3.13;;
11151;SDS011;5630;49.342;10.802;2023-04-03T05:31:21;8.47;;;3.40;;
11151;SDS011;5630;49.342;10.802;2023-04-03T05:33:46;4.73;;;2.97;;
11151;SDS011;5630;49.342;10.802;2023-04-03T05:36:12;8.67;;;3.40;;
11151;SDS011;5630;49.342;10.802;2023-04-03T05:38:38;7.43;;;3.20;;
11151;SDS011;5630;49.342;10.802;2023-04-03T05:41:04;5.27;;;3.50;;
11151;SDS011;5630;49.342;10.802;2023-04-03T05:43:30;9.18;;;3.38;;
11151;SDS011;5630;49.342;10.802;2023-04-03T05:45:57;4.85;;;3.60;;
11151;SDS011;5630;49.342;10.802;2023-04-03T05:48:23;5.53;;;3.40;;
11151;SDS011;5630;49.342;10.802;2023-04-03T05:50:48;5.13;;;3.13;;
11151;SDS011;5630;49.342;10.802;2023-04-03T05:53:16;6.23;;;3.30;;
11151;SDS011;5630;49.342;10.802;2023-04-03T05:55:45;8.02;;;3.58;;
11151;SDS011;5630;49.342;10.802;2023-04-03T05:58:11;4.80;;;3.00;;
11151;SDS011;5630;49.342;10.802;2023-04-03T06:00:36;7.50;;;3.77;;
11151;SDS011;5630;49.342;10.802;2023-04-03T06:03:02;4.27;;;3.10;;
11151;SDS011;5630;49.342;10.802;2023-04-03T06:05:28;5.73;;;3.40;;
11151;SDS011;5630;49.342;10.802;2023-04-03T06:07:53;6.53;;;3.20;;
11151;SDS011;5630;49.342;10.802;2023-04-03T06:10:19;4.97;;;3.23;;
11151;SDS011;5630;49.342;10.802;2023-04-03T06:12:45;9.57;;;3.37;;
11151;SDS011;5630;49.342;10.802;2023-04-03T06:15:10;8.57;;;3.53;;
11151;SDS011;5630;49.342;10.802;2023-04-03T06:17:36;5.27;;;2.90;;
11151;SDS011;5630;49.342;10.802;2023-04-03T06:20:02;6.30;;;3.10;;
11151;SDS011;5630;49.342;10.802;2023-04-03T06:22:28;4.93;;;3.28;;
11151;SDS011;5630;49.342;10.802;2023-04-03T06:24:55;8.80;;;3.03;;
11151;SDS011;5630;49.342;10.802;2023-04-03T06:27:21;5.65;;;3.15;;
11151;SDS011;5630;49.342;10.802;2023-04-03T06:29:47;7.07;;;3.63;;
11151;SDS011;5630;49.342;10.802;2023-04-03T06:32:13;6.53;;;3.28;;
11151;SDS011;5630;49.342;10.802;2023-04-03T06:34:39;6.93;;;3.07;;
11151;SDS011;5630;49.342;10.802;2023-04-03T06:37:05;4.27;;;3.17;;
11151;SDS011;5630;49.342;10.802;2023-04-03T06:39:31;5.13;;;2.90;;
11151;SDS011;5630;49.342;10.802;2023-04-03T06:41:57;6.68;;;2.90;;
11151;SDS011;5630;49.342;10.802;2023-04-03T06:44:23;6.03;;;3.10;;
11151;SDS011;5630;49.342;10.802;2023-04-03T06:46:48;6.13;;;3.20;;
11151;SDS011;5630;49.342;10.802;2023-04-03T06:49:14;6.57;;;3.10;;
11151;SDS011;5630;49.342;10.802;2023-04-03T06:51:40;5.65;;;3.28;;
11151;SDS011;5630;49.342;10.802;2023-04-03T06:54:06;4.63;;;3.00;;
11151;SDS011;5630;49.342;10.802;2023-04-03T06:56:33;5.22;;;3.05;;
11151;SDS011;5630;49.342;10.802;2023-04-03T06:58:59;8.88;;;3.45;;
11151;SDS011;5630;49.342;10.802;2023-04-03T07:01:26;6.22;;;3.03;;
11151;SDS011;5630;49.342;10.802;2023-04-03T07:03:53;5.07;;;2.95;;
11151;SDS011;5630;49.342;10.802;2023-04-03T07:06:19;6.47;;;2.95;;
11151;SDS011;5630;49.342;10.802;2023-04-03T07:08:45;6.20;;;2.60;;
11151;SDS011;5630;49.342;10.802;2023-04-03T07:11:12;3.83;;;2.65;;
11151;SDS011;5630;49.342;10.802;2023-04-03T07:13:38;6.72;;;3.10;;
11151;SDS011;5630;49.342;10.802;2023-04-03T07:16:04;8.13;;;3.08;;
11151;SDS011;5630;49.342;10.802;2023-04-03T07:18:30;5.93;;;2.95;;
11151;SDS011;5630;49.342;10.802;2023-04-03T07:20:56;6.72;;;3.10;;
11151;SDS011;5630;49.342;10.802;2023-04-03T07:23:22;8.00;;;2.70;;
11151;SDS011;5630;49.342;10.802;2023-04-03T07:25:49;4.95;;;2.80;;
11151;SDS011;5630;49.342;10.802;2023-04-03T07:28:16;5.18;;;2.97;;
11151;SDS011;5630;49.342;10.802;2023-04-03T07:30:43;6.97;;;3.28;;
11151;SDS011;5630;49.342;10.802;2023-04-03T07:33:10;7.22;;;3.55;;
11151;SDS011;5630;49.342;10.802;2023-04-03T07:35:36;6.20;;;2.77;;
11151;SDS011;5630;49.342;10.802;2023-04-03T07:38:02;4.93;;;2.80;;
11151;SDS011;5630;49.342;10.802;2023-04-03T07:40:28;5.93;;;2.70;;
11151;SDS011;5630;49.342;10.802;2023-04-03T07:42:54;8.30;;;3.20;;
11151;SDS011;5630;49.342;10.802;2023-04-03T07:45:21;5.65;;;2.90;;
11151;SDS011;5630;49.342;10.802;2023-04-03T07:47:47;6.10;;;2.97;;
11151;SDS011;5630;49.342;10.802;2023-04-03T07:50:13;4.47;;;2.87;;
11151;SDS011;5630;49.342;10.802;2023-04-03T07:52:39;8.23;;;3.10;;
11151;SDS011;5630;49.342;10.802;2023-04-03T07:55:05;5.50;;;3.20;;
11151;SDS011;5630;49.342;10.802;2023-04-03T07:57:31;4.97;;;2.60;;
11151;SDS011;5630;49.342;10.802;2023-04-03T07:59:57;4.50;;;2.63;;
11151;SDS011;5630;49.342;10.802;2023-04-03T08:02:22;5.50;;;3.40;;
11151;SDS011;5630;49.342;10.802;2023-04-03T08:04:48;4.73;;;2.80;;
11151;SDS011;5630;49.342;10.802;2023-04-03T08:07:13;4.47;;;3.00;;
11151;SDS011;5630;49.342;10.802;2023-04-03T08:09:39;4.47;;;2.90;;
11151;SDS011;5630;49.342;10.802;2023-04-03T08:12:05;6.30;;;3.40;;
11151;SDS011;5630;49.342;10.802;2023-04-03T08:14:31;5.57;;;3.20;;
11151;SDS011;5630;49.342;10.802;2023-04-03T08:16:59;6.67;;;2.87;;
11151;SDS011;5630;49.342;10.802;2023-04-03T08:19:25;6.40;;;3.00;;
11151;SDS011;5630;49.342;10.802;2023-04-03T08:21:51;6.53;;;3.30;;
11151;SDS011;5630;49.342;10.802;2023-04-03T08:24:17;6.77;;;3.30;;
11151;SDS011;5630;49.342;10.802;2023-04-03T08:26:42;5.67;;;3.17;;
11151;SDS011;5630;49.342;10.802;2023-04-03T08:29:08;9.73;;;3.43;;
11151;SDS011;5630;49.342;10.802;2023-04-03T08:31:33;8.07;;;3.60;;
11151;SDS011;5630;49.342;10.802;2023-04-03T08:33:59;5.87;;;2.93;;
11151;SDS011;5630;49.342;10.802;2023-04-03T08:36:25;5.23;;;3.33;;
11151;SDS011;5630;49.342;10.802;2023-04-03T08:38:53;7.23;;;2.77;;
11151;SDS011;5630;49.342;10.802;2023-04-03T08:41:31;5.50;;;3.03;;
11151;SDS011;5630;49.342;10.802;2023-04-03T08:49:26;4.23;;;3.10;;
11151;SDS011;5630;49.342;10.802;2023-04-03T08:52:31;7.10;;;2.77;;
11151;SDS011;5630;49.342;10.802;2023-04-03T08:55:19;5.40;;;3.20;;
11151;SDS011;5630;49.342;10.802;2023-04-03T08:58:12;5.93;;;3.00;;
11151;SDS011;5630;49.342;10.802;2023-04-03T09:01:06;3.57;;;2.83;;
11151;SDS011;5630;49.342;10.802;2023-04-03T09:03:42;7.43;;;2.90;;
11151;SDS011;5630;49.342;10.802;2023-04-03T09:06:12;4.77;;;3.07;;
11151;SDS011;5630;49.342;10.802;2023-04-03T09:08:49;4.33;;;2.77;;
11151;SDS011;5630;49.342;10.802;2023-04-03T09:16:35;4.50;;;3.33;;
11151;SDS011;5630;49.342;10.802;2023-04-03T09:19:06;8.23;;;3.20;;
11151;SDS011;5630;49.342;10.802;2023-04-03T09:21:42;5.30;;;2.73;;
11151;SDS011;5630;49.342;10.802;2023-04-03T09:24:09;4.57;;;2.40;;
11151;SDS011;5630;49.342;10.802;2023-04-03T09:29:19;3.37;;;2.60;;
11151;SDS011;5630;49.342;10.802;2023-04-03T09:31:47;5.97;;;2.57;;
11151;SDS011;5630;49.342;10.802;2023-04-03T09:34:37;4.33;;;2.50;;
11151;SDS011;5630;49.342;10.802;2023-04-03T09:37:03;4.27;;;2.60;;
11151;SDS011;5630;49.342;10.802;2023-04-03T09:39:31;3.77;;;2.50;;
11151;SDS011;5630;49.342;10.802;2023-04-03T09:42:20;4.13;;;2.60;;
11151;SDS011;5630;49.342;10.802;2023-04-03T09:47:26;3.67;;;2.00;;
11151;SDS011;5630;49.342;10.802;2023-04-03T09:52:42;2.37;;;1.83;;
11151;SDS011;5630;49.342;10.802;2023-04-03T09:55:17;3.73;;;2.70;;
11151;SDS011;5630;49.342;10.802;2023-04-03T09:57:52;4.30;;;2.40;;
11151;SDS011;5630;49.342;10.802;2023-04-03T10:00:26;3.07;;;2.03;;
11151;SDS011;5630;49.342;10.802;2023-04-03T10:03:03;2.87;;;2.17;;
11151;SDS011;5630;49.342;10.802;2023-04-03T10:05:39;4.27;;;2.60;;
11151;SDS011;5630;49.342;10.802;2023-04-03T10:10:41;3.90;;;2.43;;
11151;SDS011;5630;49.342;10.802;2023-04-03T10:15:44;5.57;;;2.33;;
11151;SDS011;5630;49.342;10.802;2023-04-03T10:18:22;4.37;;;2.33;;
11151;SDS011;5630;49.342;10.802;2023-04-03T10:21:04;4.43;;;2.50;;
11151;SDS011;5630;49.342;10.802;2023-04-03T10:26:56;4.50;;;2.60;;
11151;SDS011;5630;49.342;10.802;2023-04-03T10:32:03;6.30;;;2.60;;
11151;SDS011;5630;49.342;10.802;2023-04-03T10:34:42;4.17;;;2.30;;
11151;SDS011;5630;49.342;10.802;2023-04-03T10:37:23;4.73;;;2.20;;
11151;SDS011;5630;49.342;10.802;2023-04-03T10:40:05;3.97;;;2.17;;
11151;SDS011;5630;49.342;10.802;2023-04-03T10:42:50;6.57;;;2.47;;
11151;SDS011;5630;49.342;10.802;2023-04-03T10:50:47;9.47;;;2.80;;
11151;SDS011;5630;49.342;10.802;2023-04-03T10:58:56;4.33;;;2.30;;
11151;SDS011;5630;49.342;10.802;2023-04-03T11:01:51;5.57;;;2.67;;
11151;SDS011;5630;49.342;10.802;2023-04-03T11:04:25;3.50;;;2.37;;
11151;SDS011;5630;49.342;10.802;2023-04-03T11:07:00;2.93;;;2.10;;
11151;SDS011;5630;49.342;10.802;2023-04-03T11:09:30;4.60;;;2.10;;
11151;SDS011;5630;49.342;10.802;2023-04-03T11:12:04;4.97;;;2.50;;
11151;SDS011;5630;49.342;10.802;2023-04-03T11:14:37;4.90;;;2.43;;
11151;SDS011;5630;49.342;10.802;2023-04-03T11:19:50;4.37;;;2.17;;
11151;SDS011;5630;49.342;10.802;2023-04-03T11:22:38;3.13;;;2.33;;
11151;SDS011;5630;49.342;10.802;2023-04-03T11:27:40;8.03;;;2.53;;
11151;SDS011;5630;49.342;10.802;2023-04-03T11:30:22;3.87;;;2.53;;
11151;SDS011;5630;49.342;10.802;2023-04-03T11:35:52;4.77;;;2.20;;
11151;SDS011;5630;49.342;10.802;2023-04-03T11:38:36;4.50;;;2.30;;
11151;SDS011;5630;49.342;10.802;2023-04-03T11:41:07;4.97;;;2.53;;
11151;SDS011;5630;49.342;10.802;2023-04-03T11:43:39;5.10;;;2.17;;
11151;SDS011;5630;49.342;10.802;2023-04-03T11:46:07;4.27;;;2.23;;
11151;SDS011;5630;49.342;10.802;2023-04-03T11:53:45;3.43;;;2.23;;
11151;SDS011;5630;49.342;10.802;2023-04-03T12:04:12;4.27;;;2.27;;
11151;SDS011;5630;49.342;10.802;2023-04-03T12:09:22;5.20;;;2.13;;
11151;SDS011;5630;49.342;10.802;2023-04-03T12:11:48;2.47;;;1.80;;
11151;SDS011;5630;49.342;10.802;2023-04-03T12:14:14;4.03;;;2.57;;
11151;SDS011;5630;49.342;10.802;2023-04-03T12:16:42;4.13;;;2.17;;
11151;SDS011;5630;49.342;10.802;2023-04-03T12:26:48;4.80;;;2.43;;
11151;SDS011;5630;49.342;10.802;2023-04-03T12:29:33;4.20;;;2.40;;
11151;SDS011;5630;49.342;10.802;2023-04-03T12:48:33;8.47;;;4.70;;
11151;SDS011;5630;49.342;10.802;2023-04-03T12:51:04;4.70;;;2.80;;
11151;SDS011;5630;49.342;10.802;2023-04-03T12:53:36;5.43;;;2.60;;
11151;SDS011;5630;49.342;10.802;2023-04-03T12:58:55;5.87;;;3.00;;
11151;SDS011;5630;49.342;10.802;2023-04-03T13:01:37;3.83;;;2.57;;
11151;SDS011;5630;49.342;10.802;2023-04-03T13:04:03;2.80;;;2.17;;
11151;SDS011;5630;49.342;10.802;2023-04-03T13:06:39;4.20;;;2.67;;
11151;SDS011;5630;49.342;10.802;2023-04-03T13:09:17;2.60;;;2.10;;
11151;SDS011;5630;49.342;10.802;2023-04-03T13:11:54;3.33;;;2.30;;
11151;SDS011;5630;49.342;10.802;2023-04-03T13:14:27;3.17;;;2.27;;
11151;SDS011;5630;49.342;10.802;2023-04-03T13:19:23;3.80;;;2.37;;
11151;SDS011;5630;49.342;10.802;2023-04-03T13:21:50;2.77;;;2.10;;
11151;SDS011;5630;49.342;10.802;2023-04-03T13:24:26;5.17;;;2.67;;
11151;SDS011;5630;49.342;10.802;2023-04-03T13:26:52;4.07;;;2.30;;
11151;SDS011;5630;49.342;10.802;2023-04-03T13:29:20;4.97;;;2.70;;
11151;SDS011;5630;49.342;10.802;2023-04-03T13:31:51;6.23;;;2.60;;
11151;SDS011;5630;49.342;10.802;2023-04-03T13:34:19;4.17;;;2.10;;
11151;SDS011;5630;49.342;10.802;2023-04-03T13:41:45;4.43;;;2.57;;
11151;SDS011;5630;49.342;10.802;2023-04-03T13:46:51;5.37;;;2.40;;
11151;SDS011;5630;49.342;10.802;2023-04-03T13:52:24;5.00;;;2.50;;
11151;SDS011;5630;49.342;10.802;2023-04-03T13:54:57;3.60;;;2.37;;
11151;SDS011;5630;49.342;10.802;2023-04-03T13:57:36;3.20;;;2.17;;
11151;SDS011;5630;49.342;10.802;2023-04-03T14:00:18;4.97;;;2.30;;
11151;SDS011;5630;49.342;10.802;2023-04-03T14:02:46;4.23;;;2.20;;
11151;SDS011;5630;49.342;10.802;2023-04-03T14:05:12;3.97;;;2.20;;
11151;SDS011;5630;49.342;10.802;2023-04-03T14:07:38;4.10;;;2.20;;
11151;SDS011;5630;49.342;10.802;2023-04-03T14:10:04;3.10;;;1.93;;
11151;SDS011;5630;49.342;10.802;2023-04-03T14:12:35;4.23;;;2.10;;
11151;SDS011;5630;49.342;10.802;2023-04-03T14:15:07;3.67;;;2.07;;
11151;SDS011;5630;49.342;10.802;2023-04-03T14:17:57;3.13;;;2.10;;
11151;SDS011;5630;49.342;10.802;2023-04-03T14:20:24;3.70;;;1.90;;
11151;SDS011;5630;49.342;10.802;2023-04-03T14:22:51;3.47;;;2.17;;
11151;SDS011;5630;49.342;10.802;2023-04-03T14:25:18;3.00;;;2.10;;
11151;SDS011;5630;49.342;10.802;2023-04-03T14:27:45;4.40;;;2.20;;
11151;SDS011;5630;49.342;10.802;2023-04-03T14:30:15;3.97;;;2.30;;
11151;SDS011;5630;49.342;10.802;2023-04-03T14:32:45;3.27;;;2.03;;
11151;SDS011;5630;49.342;10.802;2023-04-03T14:35:11;2.70;;;1.93;;
11151;SDS011;5630;49.342;10.802;2023-04-03T14:37:37;5.50;;;2.20;;
11151;SDS011;5630;49.342;10.802;2023-04-03T14:40:04;6.07;;;2.30;;
11151;SDS011;5630;49.342;10.802;2023-04-03T14:42:32;2.57;;;2.00;;
11151;SDS011;5630;49.342;10.802;2023-04-03T14:45:01;2.93;;;2.13;;
11151;SDS011;5630;49.342;10.802;2023-04-03T14:47:28;6.70;;;2.27;;
11151;SDS011;5630;49.342;10.802;2023-04-03T14:49:55;2.57;;;1.80;;
11151;SDS011;5630;49.342;10.802;2023-04-03T14:52:22;5.40;;;2.80;;
11151;SDS011;5630;49.342;10.802;2023-04-03T14:54:53;5.47;;;2.27;;
11151;SDS011;5630;49.342;10.802;2023-04-03T14:57:19;3.63;;;2.30;;
11151;SDS011;5630;49.342;10.802;2023-04-03T14:59:49;3.63;;;2.37;;
11151;SDS011;5630;49.342;10.802;2023-04-03T15:04:56;2.87;;;2.10;;
11151;SDS011;5630;49.342;10.802;2023-04-03T15:07:24;6.00;;;2.10;;
11151;SDS011;5630;49.342;10.802;2023-04-03T15:09:52;4.13;;;2.10;;
11151;SDS011;5630;49.342;10.802;2023-04-03T15:12:18;3.47;;;2.17;;
11151;SDS011;5630;49.342;10.802;2023-04-03T15:14:43;2.57;;;2.20;;
11151;SDS011;5630;49.342;10.802;2023-04-03T15:17:16;2.17;;;1.93;;
11151;SDS011;5630;49.342;10.802;2023-04-03T15:19:45;4.30;;;2.10;;
11151;SDS011;5630;49.342;10.802;2023-04-03T15:22:15;2.73;;;2.00;;
11151;SDS011;5630;49.342;10.802;2023-04-03T15:24:42;3.53;;;2.13;;
11151;SDS011;5630;49.342;10.802;2023-04-03T15:27:09;4.17;;;2.40;;
11151;SDS011;5630;49.342;10.802;2023-04-03T15:29:36;3.83;;;2.50;;
11151;SDS011;5630;49.342;10.802;2023-04-03T15:32:02;4.17;;;2.40;;
11151;SDS011;5630;49.342;10.802;2023-04-03T15:34:28;3.70;;;2.33;;
11151;SDS011;5630;49.342;10.802;2023-04-03T15:36:53;4.73;;;2.23;;
11151;SDS011;5630;49.342;10.802;2023-04-03T15:39:19;3.93;;;2.60;;
11151;SDS011;5630;49.342;10.802;2023-04-03T15:41:45;4.00;;;2.30;;
11151;SDS011;5630;49.342;10.802;2023-04-03T15:44:11;3.73;;;2.40;;
11151;SDS011;5630;49.342;10.802;2023-04-03T15:46:38;5.80;;;2.47;;
11151;SDS011;5630;49.342;10.802;2023-04-03T15:49:04;5.63;;;2.20;;
11151;SDS011;5630;49.342;10.802;2023-04-03T15:51:30;3.00;;;2.00;;
11151;SDS011;5630;49.342;10.802;2023-04-03T15:53:56;3.50;;;2.17;;
11151;SDS011;5630;49.342;10.802;2023-04-03T15:56:21;2.80;;;1.83;;
11151;SDS011;5630;49.342;10.802;2023-04-03T15:58:47;4.80;;;2.00;;
11151;SDS011;5630;49.342;10.802;2023-04-03T16:01:12;3.00;;;2.13;;
11151;SDS011;5630;49.342;10.802;2023-04-03T16:03:39;3.07;;;2.00;;
11151;SDS011;5630;49.342;10.802;2023-04-03T16:06:10;4.93;;;1.93;;
11151;SDS011;5630;49.342;10.802;2023-04-03T16:08:40;2.27;;;1.87;;
11151;SDS011;5630;49.342;10.802;2023-04-03T16:11:06;4.10;;;2.30;;
11151;SDS011;5630;49.342;10.802;2023-04-03T16:13:31;3.53;;;2.17;;
11151;SDS011;5630;49.342;10.802;2023-04-03T16:15:58;3.20;;;1.97;;
11151;SDS011;5630;49.342;10.802;2023-04-03T16:18:25;2.93;;;2.10;;
11151;SDS011;5630;49.342;10.802;2023-04-03T16:20:50;4.90;;;2.20;;
11151;SDS011;5630;49.342;10.802;2023-04-03T16:23:16;4.87;;;2.17;;
11151;SDS011;5630;49.342;10.802;2023-04-03T16:25:42;3.07;;;2.20;;
11151;SDS011;5630;49.342;10.802;2023-04-03T16:28:11;11.63;;;5.13;;
11151;SDS011;5630;49.342;10.802;2023-04-03T16:30:39;34.23;;;17.87;;
11151;SDS011;5630;49.342;10.802;2023-04-03T16:33:06;52.87;;;29.97;;
11151;SDS011;5630;49.342;10.802;2023-04-03T16:35:31;54.93;;;31.63;;
11151;SDS011;5630;49.342;10.802;2023-04-03T16:37:57;20.30;;;13.37;;
11151;SDS011;5630;49.342;10.802;2023-04-03T16:40:22;36.13;;;27.17;;
11151;SDS011;5630;49.342;10.802;2023-04-03T16:42:48;31.57;;;28.17;;
11151;SDS011;5630;49.342;10.802;2023-04-03T16:45:14;6.47;;;3.30;;
11151;SDS011;5630;49.342;10.802;2023-04-03T16:47:39;5.03;;;2.63;;
11151;SDS011;5630;49.342;10.802;2023-04-03T16:50:05;3.37;;;2.20;;
11151;SDS011;5630;49.342;10.802;2023-04-03T16:52:31;3.87;;;2.20;;